createdAt,value
2023-03-20T00:01:30.935Z,10.00
2023-03-20T00:03:57.845Z,10.00
2023-03-20T00:06:26.921Z,10.10
2023-03-20T00:08:55.294Z,10.00
2023-03-20T00:11:30.885Z,10.00
2023-03-20T00:14:06.395Z,10.00
2023-03-20T00:16:35.575Z,10.10
2023-03-20T00:19:03.273Z,10.10
2023-03-20T00:21:30.735Z,10.10
2023-03-20T00:23:57.730Z,10.00
2023-03-20T00:26:33.558Z,10.00
2023-03-20T00:29:01.779Z,10.00
2023-03-20T00:31:35.405Z,10.00
2023-03-20T00:34:05.442Z,9.90
2023-03-20T00:36:33.412Z,9.90
2023-03-20T00:39:00.209Z,9.90
2023-03-20T00:41:38.773Z,9.80
2023-03-20T00:44:29.813Z,9.80
2023-03-20T00:47:04.167Z,9.80
2023-03-20T00:49:35.445Z,9.80
2023-03-20T00:52:03.449Z,9.80
2023-03-20T00:54:31.205Z,9.70
2023-03-20T00:57:05.544Z,9.70
2023-03-20T00:59:42.274Z,9.70
2023-03-20T01:02:11.652Z,9.70
2023-03-20T01:04:41.433Z,9.70
2023-03-20T01:07:13.858Z,9.70
2023-03-20T01:09:40.558Z,9.60
2023-03-20T01:12:10.369Z,9.60
2023-03-20T01:14:37.008Z,9.60
2023-03-20T01:17:03.711Z,9.60
2023-03-20T01:19:30.454Z,9.60
2023-03-20T01:21:57.081Z,9.60
2023-03-20T01:24:23.912Z,9.60
2023-03-20T01:26:52.619Z,9.60
2023-03-20T01:29:22.051Z,9.60
2023-03-20T01:31:49.903Z,9.50
2023-03-20T01:34:16.712Z,9.60
2023-03-20T01:36:56.986Z,9.60
2023-03-20T01:39:34.694Z,9.60
2023-03-20T01:42:03.208Z,9.60
2023-03-20T01:44:32.602Z,9.60
2023-03-20T01:47:00.204Z,9.60
2023-03-20T01:49:28.206Z,9.60
2023-03-20T01:51:56.986Z,9.60
2023-03-20T01:54:29.695Z,9.60
2023-03-20T01:57:17.169Z,9.60
2023-03-20T02:00:16.707Z,9.60
2023-03-20T02:02:46.317Z,9.60
2023-03-20T02:05:15.690Z,9.60
2023-03-20T02:07:45.784Z,9.60
2023-03-20T02:10:15.250Z,9.60
2023-03-20T02:12:42.986Z,9.60
2023-03-20T02:15:11.727Z,9.70
2023-03-20T02:17:38.404Z,9.60
2023-03-20T02:20:15.231Z,9.70
2023-03-20T02:23:02.100Z,9.70
2023-03-20T02:25:31.718Z,9.60
2023-03-20T02:28:22.581Z,9.60
2023-03-20T02:31:01.849Z,9.60
2023-03-20T02:33:31.300Z,9.60
2023-03-20T02:36:35.449Z,9.60
2023-03-20T02:39:27.693Z,9.70
2023-03-20T02:42:28.623Z,9.70
2023-03-20T02:45:13.541Z,9.70
2023-03-20T02:47:52.649Z,9.80
2023-03-20T02:50:35.387Z,9.80
2023-03-20T02:53:39.816Z,9.80
2023-03-20T02:56:09.188Z,9.80
2023-03-20T02:59:03.600Z,9.80
2023-03-20T03:01:38.791Z,9.80
2023-03-20T03:04:16.420Z,9.80
2023-03-20T03:06:46.095Z,9.80
2023-03-20T03:09:36.649Z,9.80
2023-03-20T03:12:10.241Z,9.80
2023-03-20T03:14:48.211Z,9.80
2023-03-20T03:17:17.705Z,9.90
2023-03-20T03:19:52.643Z,9.90
2023-03-20T03:22:21.416Z,9.90
2023-03-20T03:24:51.938Z,9.90
2023-03-20T03:28:05.092Z,9.90
2023-03-20T03:30:36.250Z,9.90
2023-03-20T03:33:17.142Z,9.90
2023-03-20T03:35:45.373Z,10.00
2023-03-20T03:38:28.703Z,9.90
2023-03-20T03:41:07.481Z,10.00
2023-03-20T03:43:45.549Z,10.00
2023-03-20T03:46:53.387Z,10.00
2023-03-20T03:49:32.002Z,10.00
2023-03-20T03:52:06.682Z,10.10
2023-03-20T03:54:42.306Z,10.10
2023-03-20T03:57:12.330Z,10.10
2023-03-20T03:59:43.563Z,10.20
2023-03-20T04:02:11.060Z,10.20
2023-03-20T04:04:43.297Z,10.20
2023-03-20T04:07:10.441Z,10.20
2023-03-20T04:09:37.391Z,10.20
2023-03-20T04:12:04.217Z,10.30
2023-03-20T04:14:31.261Z,10.20
2023-03-20T04:16:57.934Z,10.30
2023-03-20T04:19:24.620Z,10.20
2023-03-20T04:21:51.295Z,10.20
2023-03-20T04:24:18.095Z,10.10
2023-03-20T04:26:44.727Z,10.10
2023-03-20T04:29:11.399Z,10.10
2023-03-20T04:31:38.141Z,10.10
2023-03-20T04:34:05.004Z,10.20
2023-03-20T04:36:31.630Z,10.10
2023-03-20T04:38:58.314Z,10.00
2023-03-20T04:41:25.135Z,10.20
2023-03-20T04:43:51.766Z,10.20
2023-03-20T04:46:18.866Z,10.30
2023-03-20T04:48:45.605Z,10.40
2023-03-20T04:51:12.269Z,10.50
2023-03-20T04:53:38.940Z,10.50
2023-03-20T04:56:06.044Z,10.50
2023-03-20T04:58:33.303Z,10.50
2023-03-20T05:00:59.982Z,10.60
2023-03-20T05:03:27.680Z,10.60
2023-03-20T05:05:54.382Z,10.60
2023-03-20T05:08:21.113Z,10.60
2023-03-20T05:10:47.759Z,10.60
2023-03-20T05:13:14.416Z,10.60
2023-03-20T05:15:41.069Z,10.60
2023-03-20T05:18:08.168Z,10.70
2023-03-20T05:20:34.864Z,10.80
2023-03-20T05:23:01.688Z,10.80
2023-03-20T05:25:28.437Z,10.80
2023-03-20T05:27:55.341Z,10.80
2023-03-20T05:30:22.112Z,10.80
2023-03-20T05:32:52.731Z,10.80
2023-03-20T05:35:19.542Z,10.90
2023-03-20T05:37:46.194Z,10.90
2023-03-20T05:40:14.794Z,10.80
2023-03-20T05:42:41.817Z,10.80
2023-03-20T05:45:09.050Z,10.80
2023-03-20T05:47:35.694Z,10.80
2023-03-20T05:50:03.661Z,10.80
2023-03-20T05:52:30.366Z,10.80
2023-03-20T05:54:57.027Z,10.90
2023-03-20T05:57:23.686Z,10.90
2023-03-20T05:59:50.426Z,10.90
2023-03-20T06:02:17.308Z,11.00
2023-03-20T06:04:44.179Z,11.00
2023-03-20T06:07:11.018Z,11.00
2023-03-20T06:09:37.717Z,11.00
2023-03-20T06:12:04.477Z,11.00
2023-03-20T06:14:31.240Z,10.90
2023-03-20T06:16:58.017Z,10.80
2023-03-20T06:19:24.866Z,10.80
2023-03-20T06:21:51.569Z,10.70
2023-03-20T06:24:18.379Z,10.70
2023-03-20T06:26:45.141Z,10.70
2023-03-20T06:29:11.807Z,10.70
2023-03-20T06:31:38.575Z,10.70
2023-03-20T06:34:05.392Z,10.70
2023-03-20T06:36:32.236Z,10.70
2023-03-20T06:38:58.988Z,10.70
2023-03-20T06:41:34.178Z,10.70
2023-03-20T06:44:02.277Z,10.80
2023-03-20T06:46:29.023Z,10.80
2023-03-20T06:48:55.877Z,10.80
2023-03-20T06:51:22.567Z,10.90
2023-03-20T06:53:49.224Z,10.90
2023-03-20T06:56:16.818Z,10.90
2023-03-20T06:58:43.453Z,10.90
2023-03-20T07:01:13.131Z,10.90
2023-03-20T07:03:41.174Z,10.90
2023-03-20T07:06:08.426Z,10.80
2023-03-20T07:08:35.353Z,10.90
2023-03-20T07:11:04.159Z,10.90
2023-03-20T07:13:32.482Z,10.90
2023-03-20T07:16:04.746Z,11.00
2023-03-20T07:18:32.283Z,11.00
2023-03-20T07:21:02.965Z,11.00
2023-03-20T07:23:30.781Z,11.10
2023-03-20T07:25:58.804Z,11.10
2023-03-20T07:28:25.451Z,11.20
2023-03-20T07:30:52.404Z,11.20
2023-03-20T07:33:19.466Z,11.20
2023-03-20T07:35:46.465Z,11.20
2023-03-20T07:38:13.112Z,11.20
2023-03-20T07:40:39.761Z,11.10
2023-03-20T07:43:06.648Z,11.10
2023-03-20T07:45:33.353Z,11.10
2023-03-20T07:48:00.435Z,11.10
2023-03-20T07:50:27.159Z,11.20
2023-03-20T07:52:53.755Z,11.10
2023-03-20T07:55:20.411Z,11.10
2023-03-20T07:57:49.582Z,11.10
2023-03-20T08:00:17.309Z,11.00
2023-03-20T08:02:44.292Z,11.00
2023-03-20T08:05:11.216Z,11.00
2023-03-20T08:07:37.849Z,11.00
2023-03-20T08:10:04.937Z,11.00
2023-03-20T08:12:31.569Z,11.00
2023-03-20T08:14:58.281Z,11.00
2023-03-20T08:17:25.411Z,11.10
2023-03-20T08:19:52.105Z,11.10
2023-03-20T08:22:18.761Z,11.20
2023-03-20T08:24:45.494Z,11.30
2023-03-20T08:27:12.149Z,11.40
2023-03-20T08:29:38.907Z,11.50
2023-03-20T08:32:06.119Z,11.60
2023-03-20T08:34:33.569Z,11.70
2023-03-20T08:37:02.735Z,11.70
2023-03-20T08:39:29.419Z,11.80
2023-03-20T08:41:56.103Z,11.80
2023-03-20T08:44:22.727Z,11.90
2023-03-20T08:46:49.411Z,11.90
2023-03-20T08:49:16.085Z,11.90
2023-03-20T08:51:43.066Z,11.90
2023-03-20T08:54:09.711Z,11.90
2023-03-20T08:56:36.384Z,11.90
2023-03-20T08:59:03.636Z,11.90
2023-03-20T09:01:46.082Z,12.00
2023-03-20T09:04:15.265Z,12.00
2023-03-20T09:06:42.239Z,12.00
2023-03-20T09:09:08.902Z,12.00
2023-03-20T09:11:37.418Z,12.00
2023-03-20T09:14:04.054Z,12.10
2023-03-20T09:16:30.837Z,12.10
2023-03-20T09:18:57.542Z,12.10
2023-03-20T09:21:24.190Z,12.10
2023-03-20T09:23:50.929Z,12.20
2023-03-20T09:26:17.785Z,12.20
2023-03-20T09:28:44.396Z,12.20
2023-03-20T09:31:12.038Z,12.20
2023-03-20T09:33:38.731Z,12.30
2023-03-20T09:36:06.258Z,12.50
2023-03-20T09:38:32.972Z,13.00
2023-03-20T09:41:01.434Z,14.40
2023-03-20T09:43:47.029Z,15.20
2023-03-20T09:46:49.643Z,15.90
2023-03-20T09:49:16.443Z,16.60
2023-03-20T09:52:01.496Z,17.40
2023-03-20T09:54:29.416Z,19.40
2023-03-20T09:56:57.796Z,21.20
2023-03-20T09:59:27.073Z,21.90
2023-03-20T10:02:06.425Z,22.00
2023-03-20T10:04:34.795Z,22.20
2023-03-20T10:07:04.626Z,22.00
2023-03-20T10:09:32.312Z,21.30
2023-03-20T10:12:18.195Z,20.60
2023-03-20T10:15:00.001Z,19.80
2023-03-20T10:17:56.394Z,19.00
2023-03-20T10:20:37.911Z,18.30
2023-03-20T10:23:19.233Z,17.80
2023-03-20T10:25:53.792Z,17.00
2023-03-20T10:28:26.987Z,16.40
2023-03-20T10:31:24.385Z,16.00
2023-03-20T10:34:28.924Z,15.80
2023-03-20T10:37:14.826Z,15.60
2023-03-20T10:39:54.431Z,15.30
2023-03-20T10:42:27.662Z,15.30
2023-03-20T10:45:02.119Z,15.50
2023-03-20T10:47:33.513Z,15.60
2023-03-20T10:50:11.340Z,15.70
2023-03-20T10:52:41.436Z,15.70
2023-03-20T10:55:14.444Z,15.50
2023-03-20T10:57:48.292Z,15.50
2023-03-20T11:00:22.285Z,15.40
2023-03-20T11:02:49.333Z,15.30
2023-03-20T11:05:24.937Z,15.30
2023-03-20T11:08:01.898Z,15.40
2023-03-20T11:10:33.775Z,15.40
2023-03-20T11:13:22.853Z,15.20
2023-03-20T11:15:53.416Z,15.10
2023-03-20T11:18:20.665Z,14.90
2023-03-20T11:20:54.767Z,14.80
2023-03-20T11:23:31.344Z,14.80
2023-03-20T11:26:08.027Z,14.80
2023-03-20T11:28:37.290Z,15.00
2023-03-20T11:31:30.016Z,15.30
2023-03-20T11:34:14.884Z,15.50
2023-03-20T11:37:10.412Z,15.60
2023-03-20T11:39:39.866Z,15.70
2023-03-20T11:42:23.358Z,15.70
2023-03-20T11:44:58.349Z,15.90
2023-03-20T11:47:27.815Z,16.10
2023-03-20T11:49:57.749Z,16.50
2023-03-20T11:52:34.896Z,17.30
2023-03-20T11:55:04.964Z,17.50
2023-03-20T11:57:37.969Z,17.40
2023-03-20T12:00:20.747Z,17.10
2023-03-20T12:02:47.675Z,16.90
2023-03-20T12:05:36.324Z,16.80
2023-03-20T12:08:16.316Z,16.60
2023-03-20T12:10:46.945Z,16.40
2023-03-20T12:13:17.154Z,16.30
2023-03-20T12:15:55.638Z,16.30
2023-03-20T12:18:32.856Z,16.80
2023-03-20T12:21:21.435Z,17.10
2023-03-20T12:23:54.899Z,17.40
2023-03-20T12:26:28.124Z,17.80
2023-03-20T12:29:18.665Z,18.10
2023-03-20T12:32:03.230Z,18.10
2023-03-20T12:34:32.985Z,18.20
2023-03-20T12:37:00.263Z,18.20
2023-03-20T12:39:41.401Z,18.00
2023-03-20T12:42:27.674Z,18.00
2023-03-20T12:45:11.328Z,18.20
2023-03-20T12:47:43.981Z,18.30
2023-03-20T12:50:35.550Z,18.10
2023-03-20T12:53:35.137Z,18.00
2023-03-20T12:56:27.808Z,17.70
2023-03-20T12:59:26.404Z,17.40
2023-03-20T13:01:59.122Z,17.30
2023-03-20T13:04:56.537Z,17.20
2023-03-20T13:07:56.321Z,17.20
2023-03-20T13:10:28.783Z,17.30
2023-03-20T13:13:05.497Z,17.40
2023-03-20T13:16:04.746Z,17.50
2023-03-20T13:18:44.943Z,17.60
2023-03-20T13:21:24.402Z,17.60
2023-03-20T13:24:15.604Z,17.20
2023-03-20T13:26:56.109Z,17.00
2023-03-20T13:29:41.852Z,16.60
2023-03-20T13:32:17.493Z,17.70
2023-03-20T13:35:02.101Z,16.00
2023-03-20T13:37:35.722Z,15.90
2023-03-20T13:40:21.125Z,15.90
2023-03-20T13:43:04.248Z,16.00
2023-03-20T13:45:36.538Z,16.00
2023-03-20T13:48:07.940Z,15.90
2023-03-20T13:51:02.208Z,15.90
2023-03-20T13:53:33.308Z,15.70
2023-03-20T13:56:18.618Z,15.60
2023-03-20T13:59:11.172Z,15.50
2023-03-20T14:02:05.079Z,15.50
2023-03-20T14:04:32.508Z,15.50
2023-03-20T14:06:59.770Z,15.70
2023-03-20T14:09:28.065Z,15.90
2023-03-20T14:11:58.540Z,16.10
2023-03-20T14:14:29.578Z,16.10
2023-03-20T14:17:06.508Z,16.00
2023-03-20T14:19:36.491Z,15.90
2023-03-20T14:22:03.584Z,15.80
2023-03-20T14:24:33.944Z,15.70
2023-03-20T14:27:01.460Z,15.80
2023-03-20T14:29:37.535Z,15.90
2023-03-20T14:32:13.423Z,15.90
2023-03-20T14:34:59.734Z,16.00
2023-03-20T14:37:38.393Z,16.10
2023-03-20T14:40:17.234Z,16.00
2023-03-20T14:43:00.418Z,15.90
2023-03-20T14:45:44.773Z,15.90
2023-03-20T14:48:37.757Z,16.00
2023-03-20T14:51:24.293Z,16.10
2023-03-20T14:54:18.228Z,15.40
2023-03-20T14:56:44.974Z,16.10
2023-03-20T14:59:12.544Z,16.10
2023-03-20T15:01:39.201Z,15.90
2023-03-20T15:04:07.765Z,15.80
2023-03-20T15:06:42.333Z,15.80
2023-03-20T15:09:11.139Z,15.70
2023-03-20T15:11:38.535Z,15.60
2023-03-20T15:14:07.753Z,15.50
2023-03-20T15:16:37.554Z,15.40
2023-03-20T15:19:19.780Z,15.30
2023-03-20T15:21:48.074Z,15.20
2023-03-20T15:24:26.096Z,15.10
2023-03-20T15:27:01.195Z,14.90
2023-03-20T15:29:29.654Z,14.80
2023-03-20T15:32:15.474Z,14.80
2023-03-20T15:34:44.033Z,14.70
2023-03-20T15:37:20.777Z,14.70
2023-03-20T15:39:51.620Z,14.50
2023-03-20T15:42:21.941Z,14.40
2023-03-20T15:44:52.155Z,14.30
2023-03-20T15:47:21.980Z,14.20
2023-03-20T15:49:55.322Z,14.20
2023-03-20T15:52:42.864Z,14.20
2023-03-20T15:55:17.690Z,14.20
2023-03-20T15:57:47.163Z,14.30
2023-03-20T16:00:32.572Z,14.30
2023-03-20T16:03:01.636Z,14.20
2023-03-20T16:05:30.046Z,14.20
2023-03-20T16:07:56.723Z,14.10
2023-03-20T16:10:36.062Z,14.00
2023-03-20T16:13:04.350Z,13.90
2023-03-20T16:15:32.803Z,13.80
2023-03-20T16:18:02.351Z,13.70
2023-03-20T16:20:37.612Z,13.70
2023-03-20T16:23:07.088Z,13.60
2023-03-20T16:25:35.961Z,13.60
2023-03-20T16:28:07.054Z,13.40
2023-03-20T16:30:35.166Z,13.30
2023-03-20T16:33:07.329Z,13.20
2023-03-20T16:35:44.961Z,13.20
2023-03-20T16:38:25.292Z,13.10
2023-03-20T16:41:15.980Z,13.10
2023-03-20T16:43:48.799Z,13.10
2023-03-20T16:46:26.390Z,13.10
2023-03-20T16:49:29.519Z,13.00
2023-03-20T16:52:01.960Z,12.90
2023-03-20T16:54:36.048Z,12.90
2023-03-20T16:57:05.947Z,12.70
2023-03-20T16:59:32.586Z,12.70
2023-03-20T17:01:59.982Z,12.60
2023-03-20T17:04:41.349Z,12.60
2023-03-20T17:07:15.332Z,12.60
2023-03-20T17:10:16.803Z,12.60
2023-03-20T17:12:46.625Z,12.50
2023-03-20T17:15:18.921Z,12.50
2023-03-20T17:17:45.672Z,12.40
2023-03-20T17:20:24.795Z,12.40
2023-03-20T17:22:52.161Z,12.40
2023-03-20T17:25:20.042Z,12.30
2023-03-20T17:27:47.035Z,12.30
2023-03-20T17:30:20.293Z,12.30
2023-03-20T17:32:47.176Z,12.30
2023-03-20T17:35:14.005Z,12.30
2023-03-20T17:37:41.204Z,12.30
2023-03-20T17:40:12.970Z,12.40
2023-03-20T17:42:39.694Z,12.30
2023-03-20T17:45:06.867Z,12.30
2023-03-20T17:47:33.576Z,12.30
2023-03-20T17:50:00.273Z,12.20
2023-03-20T17:52:28.413Z,12.20
2023-03-20T17:54:55.118Z,12.20
2023-03-20T17:57:32.708Z,12.30
2023-03-20T18:00:00.724Z,12.20
2023-03-20T18:02:27.653Z,12.20
2023-03-20T18:04:54.433Z,12.10
2023-03-20T18:07:21.265Z,12.10
2023-03-20T18:09:49.252Z,12.10
2023-03-20T18:12:18.331Z,12.10
2023-03-20T18:14:46.115Z,12.10
2023-03-20T18:17:14.336Z,12.10
2023-03-20T18:19:42.281Z,12.10
2023-03-20T18:22:09.303Z,12.10
2023-03-20T18:24:36.568Z,12.10
2023-03-20T18:27:03.560Z,12.10
2023-03-20T18:29:30.232Z,12.10
2023-03-20T18:31:56.948Z,12.10
2023-03-20T18:34:23.616Z,12.10
2023-03-20T18:36:51.785Z,12.10
2023-03-20T18:39:24.203Z,12.10
2023-03-20T18:41:51.835Z,12.00
2023-03-20T18:44:19.120Z,12.00
2023-03-20T18:46:45.964Z,12.00
2023-03-20T18:49:17.489Z,12.00
2023-03-20T18:51:45.133Z,11.90
2023-03-20T18:54:11.948Z,11.90
2023-03-20T18:56:38.809Z,11.90
2023-03-20T18:59:07.804Z,11.80
2023-03-20T19:01:35.806Z,11.70
2023-03-20T19:04:02.645Z,11.70
2023-03-20T19:06:32.544Z,11.60
2023-03-20T19:09:02.690Z,11.60
2023-03-20T19:11:29.341Z,11.60
2023-03-20T19:13:56.204Z,11.60
2023-03-20T19:16:27.322Z,11.60
2023-03-20T19:18:55.908Z,11.50
2023-03-20T19:21:26.156Z,11.50
2023-03-20T19:23:54.748Z,11.50
2023-03-20T19:26:22.332Z,11.50
2023-03-20T19:28:48.949Z,11.50
2023-03-20T19:31:16.216Z,11.40
2023-03-20T19:33:43.347Z,11.30
2023-03-20T19:36:37.183Z,11.30
2023-03-20T19:39:06.317Z,11.20
2023-03-20T19:41:33.035Z,11.20
2023-03-20T19:44:01.377Z,11.20
2023-03-20T19:46:39.680Z,11.20
2023-03-20T19:49:17.878Z,11.20
2023-03-20T19:51:45.085Z,11.20
2023-03-20T19:54:11.713Z,11.20
2023-03-20T19:56:38.396Z,11.20
2023-03-20T19:59:05.906Z,11.20
2023-03-20T20:01:32.638Z,11.30
2023-03-20T20:03:59.422Z,11.30
2023-03-20T20:06:31.350Z,11.40
2023-03-20T20:08:59.544Z,11.40
2023-03-20T20:11:26.245Z,11.40
2023-03-20T20:14:10.012Z,11.50
2023-03-20T20:16:39.933Z,11.50
2023-03-20T20:19:07.297Z,11.50
2023-03-20T20:24:21.249Z,11.50
2023-03-20T20:26:55.484Z,11.40
2023-03-20T20:29:29.936Z,11.40
2023-03-20T20:31:56.749Z,11.40
2023-03-20T20:39:58.766Z,11.20
2023-03-20T20:42:25.575Z,11.20
2023-03-20T20:44:52.394Z,11.20
2023-03-20T20:47:19.105Z,11.10
2023-03-20T20:49:47.495Z,11.00
2023-03-20T20:52:15.688Z,11.00
2023-03-20T20:54:42.588Z,11.00
2023-03-20T20:57:10.797Z,11.00
2023-03-20T20:59:38.126Z,11.00
2023-03-20T21:02:10.676Z,11.00
2023-03-20T21:04:42.089Z,11.00
2023-03-20T21:07:13.152Z,10.90
2023-03-20T21:09:40.373Z,10.80
2023-03-20T21:12:08.550Z,10.80
2023-03-20T21:14:35.691Z,10.80
2023-03-20T21:17:03.647Z,10.70
2023-03-20T21:19:34.635Z,10.70
2023-03-20T21:22:01.520Z,10.70
2023-03-20T21:24:33.181Z,10.60
2023-03-20T21:27:01.449Z,10.60
2023-03-20T21:29:28.069Z,10.50
2023-03-20T21:31:54.762Z,10.50
2023-03-20T21:34:21.861Z,10.50
2023-03-20T21:36:49.377Z,10.50
2023-03-20T21:39:17.545Z,10.50
2023-03-20T21:41:45.246Z,10.40
2023-03-20T21:44:17.670Z,10.50
2023-03-20T21:58:41.318Z,10.50
2023-03-20T22:04:10.534Z,10.50
2023-03-20T22:07:18.681Z,10.50
2023-03-20T22:21:03.832Z,10.50
2023-03-20T22:26:55.149Z,10.60
2023-03-20T22:35:04.313Z,10.70
2023-03-20T22:37:46.626Z,10.70
2023-03-20T22:40:59.378Z,10.70
2023-03-20T22:42:59.552Z,10.60
2023-03-20T22:45:37.846Z,10.60
2023-03-20T22:48:11.448Z,10.60
2023-03-20T22:50:39.445Z,10.60
2023-03-20T22:53:06.263Z,10.60
2023-03-20T22:55:33.392Z,10.70
2023-03-20T22:58:07.468Z,10.70
2023-03-20T23:00:36.271Z,10.60
2023-03-20T23:03:22.305Z,10.60
2023-03-20T23:05:51.570Z,10.60
2023-03-20T23:08:18.413Z,10.60
2023-03-20T23:10:47.835Z,10.60
2023-03-20T23:13:14.983Z,10.60
2023-03-20T23:15:41.707Z,10.60
2023-03-20T23:18:09.745Z,10.50
2023-03-20T23:20:36.743Z,10.40
2023-03-20T23:23:03.606Z,10.40
2023-03-20T23:25:38.884Z,10.30
2023-03-20T23:28:08.314Z,10.30
2023-03-20T23:30:44.215Z,10.30
2023-03-20T23:33:13.137Z,10.30
2023-03-20T23:35:39.837Z,10.30
2023-03-20T23:38:06.520Z,10.40
2023-03-20T23:40:33.249Z,10.40
2023-03-20T23:42:59.888Z,10.40
2023-03-20T23:45:26.631Z,10.40
2023-03-20T23:47:53.315Z,10.50
2023-03-20T23:50:28.886Z,10.50
2023-03-20T23:53:13.086Z,10.50
2023-03-20T23:55:45.967Z,10.50
2023-03-20T23:58:13.488Z,10.40
